KSLB/SLB METAR and TAF weather

Enter ICAO airport designator
Station Type Date Time Source
KSLB METAR 2019/05/26 23:35 UTC NOAA

KSLB 262335Z AUTO 13007KT 10SM CLR 25/08 A2996 RMK AO2


Station Type Date Time Source
KSLB Decoded METAR 2019/05/26 23:35 UTC NOAA

Storm Lake, IA, United States (KSLB) 42-36N 095-14W
May 26, 2019 - 07:35 PM EDT / 2019.05.26 2335 UTC
Wind: from the SE (130 degrees) at 8 MPH (7 KT):0
Visibility: 10 mile(s):0
Sky conditions: clear
Temperature: 77 F (25 C)
Dew Point: 46 F (8 C)
Relative Humidity: 33%
Pressure (altimeter): 29.96 in. Hg (1014 hPa)
ob: KSLB 262335Z AUTO 13007KT 10SM CLR 25/08 A2996 RMK AO2
cycle: 23

Station Type Date Time Source
KSLB TAF UTC NOAA

Error!

Example: see airport list